Logo AVAMET
Benvolgut visitant, si us plau, ingressa Recuperar contrasenya
AVAMET paisatges

Castelló de Rugat

Dades diàries. Acumulats / Últims 30 dies disponibles

Data Temperatura (°C) Humitat rel. (%) Pressió rel. (hPa) Vent (km/h) Precipitació
Mínima Mitjana Màxima Amplitud
tèrmica
Mínima Mitjana Màxima Mínima Mitjana Màxima Predom. Mitjana Ràfega
màxima
Total
(mm)
Índex-n
Mínima Mitjana Màxima Mínima Mitjana Màxima n
0 a 1
P0 max
mm 5'
Dades mensuals acumulades fins l'últim dia disponible
07/2020 19,7 21,3 22,2 25,8 27,4 31,2 40,3 20,6 14 70 90 1.009 1.015 1.021   7,8 45,1 0,0
Dades anuals acumulades fins l'últim dia disponible
2020 2,8 12,3 22,2 16,5 8,2 21,6 40,3 37,5 14 71 96 1.001 1.018 1.034   5,1 75,6 613,2
Últims 30 dies disponibles
11-07-2020 20,1     23,8     28,2 8,1 60 78 88 1.015 1.017 1.018 NE 7,6 30,6 0,0
10-07-2020 19,7     24,4     29,3 9,6 55 74 89 1.013 1.014 1.016 NE 8,4 35,4 0,0
09-07-2020 21,8     25,2     29,3 7,5 43 72 90 1.013 1.015 1.017 NE 10,8 45,1 0,0
08-07-2020 21,9     25,0     29,3 7,4 54 76 90 1.014 1.016 1.017 NE 8,0 41,8 0,0
07-07-2020 22,2     27,3     31,8 9,6 37 58 75 1.012 1.014 1.015 NE 6,4 30,6 0,0
06-07-2020 20,9     27,4     33,8 12,9 35 58 84 1.013 1.015 1.018 NE 7,7 30,6 0,0
05-07-2020 21,5     26,3     31,8 10,3 41 66 86 1.016 1.019 1.021 NE 8,5 33,8 0,0
04-07-2020 21,6     25,5     30,4 8,8 61 75 89 1.017 1.019 1.021 NE 7,4 33,8 0,0
03-07-2020 21,8     24,6     27,4 5,6 64 77 88 1.015 1.017 1.020 NE 9,7 41,8 0,0
02-07-2020 21,2     25,6     31,1 9,9 55 75 88 1.011 1.012 1.015 NE 7,4 33,8 0,0
01-07-2020 21,1     28,8     40,3 19,2 14 62 89 1.009 1.011 1.012 SW 3,9 29,0 0,0
30-06-2020 21,5     24,8     29,4 7,9 64 78 91 1.010 1.013 1.016 NE 8,5 33,8 0,0
29-06-2020 20,2     25,3     31,4 11,2 55 75 90 1.013 1.015 1.017 NE 6,0 32,2 0,0
28-06-2020 20,1     24,8     30,2 10,1 61 77 92 1.014 1.016 1.017 NE 6,3 32,2 0,0
27-06-2020 19,5     25,3     31,6 12,1 31 66 87 1.013 1.014 1.016 NE 5,8 33,8 0,0
26-06-2020 19,5     23,8     28,3 8,8 52 71 89 1.011 1.014 1.016 NE 8,0 37,0 0,0
25-06-2020 18,8     23,8     28,8 10,0 48 69 90 1.013 1.015 1.018 NE 7,7 35,4 0,0
24-06-2020 18,8     22,9     28,7 9,9 58 76 89 1.015 1.017 1.018 NE 5,6 33,8 0,0
23-06-2020 18,7     24,0     29,7 11,0 48 68 88 1.014 1.017 1.019 NE 8,9 40,2 0,0
22-06-2020 19,6     25,2     31,1 11,5 35 65 91 1.017 1.020 1.021 NE 8,4 37,0 0,0
21-06-2020 18,0     24,0     29,5 11,5 56 73 89 1.018 1.020 1.021 NE 5,6 27,4 0,0
20-06-2020 18,0     24,1     31,1 13,1 38 73 93 1.017 1.019 1.021 NE 4,8 29,0 0,0
19-06-2020 18,2     21,7     26,1 7,9 65 80 92 1.016 1.017 1.020 SW 6,1 35,4 0,0
18-06-2020 17,2     20,3     23,7 6,5 71 83 92 1.012 1.014 1.016 NE 8,9 35,4 0,2
17-06-2020 16,8     20,2     25,3 8,5 57 82 93 1.013 1.015 1.017 NE 6,6 41,8 7,4
16-06-2020 17,6     21,2     27,9 10,3 44 76 91 1.014 1.016 1.018 NE 7,2 45,1 0,0
15-06-2020 18,8     23,8     29,1 10,3 32 52 89 1.016 1.018 1.020 NE 6,1 38,6 0,0
14-06-2020 17,4     23,3     28,6 11,2 33 45 61 1.015 1.016 1.018 NE 8,9 41,8 0,0
13-06-2020 16,2     22,3     28,4 12,2 28 43 58 1.009 1.013 1.016 SW 4,7 30,6 0,0
12-06-2020 17,4     22,7     28,3 10,9 24 47 67 1.003 1.005 1.009 SW 4,7 32,2 0,0
Últims 13 mesos disponibles
06/2020 13,9 17,7 21,5 22,8 20,3 28,5 33,2 19,3 43 67 83 1.005 1.014 1.020 NE 6,4 45,1 20,6
05/2020 11,1 15,3 18,8 20,0 16,3 25,4 32,2 21,1 49 68 91 1.005 1.016 1.026 NE 5,5 45,1 103,4
04/2020 7,9 11,4 15,8 14,5 14,4 18,8 25,8 17,9 50 78 95 1.006 1.016 1.025 NE 5,3 41,8 64,2
03/2020 4,3 9,5 14,3 13,1 8,4 17,4 28,5 24,2 43 72 93 1.007 1.017 1.026 SW 5,4 61,2 122,0
02/2020 4,3 9,9 13,8 14,7 12,6 20,7 26,3 22,0 36 66 91 1.014 1.025 1.032 SW 3,2 45,1 4,8
01/2020 2,8 6,9 12,9 10,4 8,2 15,3 20,2 17,4 52 75 93 1.015 1.025 1.032 SW 3,8 75,6 298,2
12/2019 4,4 9,5 17,0 13,0 10,9 17,4 24,4 20,0 43 71 95 1.002 1.019 1.032 SW 4,4 77,2 181,8
11/2019 4,3 10,4 19,1 14,0 14,3 18,6 25,9 21,6 52 62 78 999 1.011 1.019 SW 4,7 82,1 17,4
10/2019 10,4 15,2 18,8 19,4 14,3 24,6 33,3 22,9 41 66 91 1.008 1.016 1.022 SW 3,3 40,2 49,0
09/2019 12,7 18,7 21,5 22,5 19,4 27,0 33,2 20,5 45 79 96 1.009 1.016 1.023 NE 5,5 78,9 158,8
08/2019 16,9 20,7 25,3 25,5 25,7 31,5 41,5 24,6 18 77 95 1.010 1.014 1.017 S 6,6 48,1 42,1
07/2019 19,3 21,0 24,9 26,1 26,2 31,3 38,4 19,1 9 71 92 978 1.012 1.019 SE 8,6 72,9 0,5
06/2019 11,7 16,7 21,5 22,1 20,0 27,9 34,8 23,1 25 66 92 1.008 1.014 1.019 SE 6,8 40,7 0,0
Tots els anys disponibles
2019 -0,3 13,1 25,3 17,5 10,9 22,7 41,5 41,8 9 68 100 978 1.015 1.032 SW 5,6 82,1 847,5
2018 0,6 13,2 24,5 17,4 5,3 22,3 37,0 36,4 17 70 100 989 1.015 1.031 SE 5,0 74,0 662,4
2017 -1,5 13,1 28,7 17,8 4,8 22,4 38,0 39,5 20 68 99 997 1.018 1.032 S 0,1 73,0 540,1
2016 1,3 13,1 25,8 17,7 7,0 22,3 40,4 39,1 17 63 100 995 1.017 1.034 72,0 909,9
2015 2,4 14,4 27,7 19,1 8,7 23,8 42,2 39,8 11 63 97 1.006 1.019 1.033 69,0 411,1
Temperatura (°C)
Humitat relativa (%)
Velocitat del vent i ràfega màxima (km/h)
Direcció del vent (°)
Pressió (hPa)
Precipitació (mm)
Nota sobre les dades: s'avisa a l'usuari de la provisionalitat i no oficialitat d'aquestes dades
Logo AVAMET blanc
Web allotjada a Sollutia
Llicència de Creative CommonsLa web d'AVAMET i els seus continguts estan subjectes a una llicència de
Reconeixement - No Comercial - Compartir igual
Últimes estacions: Vilamarxant - La Pedrera (Soci), Càlig (Ajuntament Soci), Quesa - Hotel La Rocha (Soci), Agres - Les Eres (Soci), la Vilavella - Ptda Forns (Soci), Miramar - Platja (Inforatge), San Fulgencio - Centre & San Fulgencio - Urb. La Marina (MeteOrihuela), Ontinyent - els Gínjols (Soci), Orba (Aj. Soci) - - -